createdAt,value
2022-10-08T00:00:08.190Z,77.95
2022-10-08T00:00:49.060Z,78.04
2022-10-08T00:01:21.963Z,78.14
2022-10-08T00:01:53.852Z,78.10
2022-10-08T00:02:27.378Z,77.88
2022-10-08T00:02:59.240Z,77.83
2022-10-08T00:03:34.202Z,78.12
2022-10-08T00:04:06.087Z,78.17
2022-10-08T00:04:38.093Z,77.84
2022-10-08T00:05:10.278Z,78.30
2022-10-08T00:05:42.327Z,78.30
2022-10-08T00:06:19.628Z,78.42
2022-10-08T00:06:51.737Z,78.42
2022-10-08T00:07:23.770Z,78.57
2022-10-08T00:07:55.585Z,78.25
2022-10-08T00:08:29.419Z,78.36
2022-10-08T00:09:04.779Z,78.33
2022-10-08T00:09:36.629Z,78.15
2022-10-08T00:10:08.653Z,78.10
2022-10-08T00:10:40.513Z,78.38
2022-10-08T00:11:16.435Z,78.78
2022-10-08T00:11:48.253Z,78.37
2022-10-08T00:12:20.429Z,78.27
2022-10-08T00:12:52.628Z,78.31
2022-10-08T00:13:26.405Z,78.73
2022-10-08T00:13:58.636Z,79.11
2022-10-08T00:14:30.569Z,79.16
2022-10-08T00:15:04.280Z,79.30
2022-10-08T00:15:37.159Z,79.15
2022-10-08T00:16:23.214Z,78.96
2022-10-08T00:16:55.298Z,78.76
2022-10-08T00:17:28.532Z,78.68
2022-10-08T00:18:00.339Z,78.63
2022-10-08T00:18:32.217Z,78.99
2022-10-08T00:19:08.978Z,78.73
2022-10-08T00:19:40.827Z,78.60
2022-10-08T00:20:12.676Z,78.40
2022-10-08T00:20:44.755Z,78.77
2022-10-08T00:21:25.780Z,79.09
2022-10-08T00:21:57.584Z,78.65
2022-10-08T00:22:29.742Z,78.84
2022-10-08T00:23:01.994Z,78.67
2022-10-08T00:23:35.028Z,78.50
2022-10-08T00:24:08.691Z,78.21
2022-10-08T00:24:40.546Z,78.60
2022-10-08T00:25:12.410Z,78.93
2022-10-08T00:25:44.759Z,79.40
2022-10-08T00:26:18.148Z,79.48
2022-10-08T00:26:51.281Z,79.23
2022-10-08T00:27:26.488Z,78.84
2022-10-08T00:27:58.648Z,78.96
2022-10-08T00:28:30.734Z,79.06
2022-10-08T00:29:04.950Z,79.01
2022-10-08T00:29:36.787Z,79.17
2022-10-08T00:30:09.112Z,79.19
2022-10-08T00:30:41.718Z,79.33
2022-10-08T00:31:41.252Z,79.62
2022-10-08T00:32:13.172Z,79.75
2022-10-08T00:32:45.334Z,79.76
2022-10-08T00:33:17.663Z,79.42
2022-10-08T00:33:55.013Z,79.39
2022-10-08T00:34:27.160Z,79.43
2022-10-08T00:34:59.018Z,79.34
2022-10-08T00:35:30.820Z,79.25
2022-10-08T00:36:08.637Z,79.56
2022-10-08T00:36:40.950Z,79.36
2022-10-08T00:37:15.181Z,78.98
2022-10-08T00:37:47.011Z,79.10
2022-10-08T00:38:19.134Z,79.18
2022-10-08T00:38:58.722Z,79.12
2022-10-08T00:39:30.523Z,79.02
2022-10-08T00:40:02.409Z,78.87
2022-10-08T00:40:46.545Z,78.82
2022-10-08T00:41:22.559Z,78.69
2022-10-08T00:41:55.450Z,78.51
2022-10-08T00:42:27.362Z,79.09
2022-10-08T00:43:00.436Z,78.62
2022-10-08T00:43:42.790Z,78.93
2022-10-08T00:44:45.366Z,78.69
2022-10-08T00:45:17.302Z,78.54
2022-10-08T00:45:49.395Z,78.53
2022-10-08T00:46:36.094Z,78.79
2022-10-08T00:47:33.050Z,78.53
2022-10-08T00:48:04.940Z,78.29
2022-10-08T00:48:37.097Z,77.80
2022-10-08T00:49:10.472Z,77.82
2022-10-08T00:49:43.891Z,78.07
2022-10-08T00:50:21.726Z,78.39
2022-10-08T00:50:53.786Z,78.69
2022-10-08T00:51:26.002Z,78.17
2022-10-08T00:51:59.018Z,78.65
2022-10-08T00:52:35.963Z,78.62
2022-10-08T00:53:10.105Z,78.91
2022-10-08T00:53:42.379Z,79.02
2022-10-08T00:54:14.824Z,79.27
2022-10-08T00:54:46.769Z,79.01
2022-10-08T00:55:21.442Z,78.67
2022-10-08T00:55:53.286Z,78.69
2022-10-08T00:56:25.349Z,78.81
2022-10-08T00:56:57.228Z,79.01
2022-10-08T00:57:29.803Z,78.80
2022-10-08T00:58:13.973Z,78.48
2022-10-08T00:58:46.128Z,78.20
2022-10-08T00:59:18.420Z,78.77
2022-10-08T00:59:50.273Z,78.99
2022-10-08T01:00:26.585Z,78.73
2022-10-08T01:00:58.609Z,79.00
2022-10-08T01:01:30.637Z,79.22
2022-10-08T01:02:02.516Z,79.47
2022-10-08T01:02:34.435Z,79.12
2022-10-08T01:03:06.388Z,78.72
2022-10-08T01:03:38.267Z,78.98
2022-10-08T01:04:12.607Z,80.98
2022-10-08T01:04:44.572Z,81.23
2022-10-08T01:05:19.850Z,80.42
2022-10-08T01:06:20.833Z,79.54
2022-10-08T01:07:22.535Z,78.69
2022-10-08T01:08:07.370Z,78.42
2022-10-08T01:08:41.892Z,78.47
2022-10-08T01:09:38.048Z,78.92
2022-10-08T01:10:18.863Z,79.01
2022-10-08T01:11:02.535Z,79.02
2022-10-08T01:11:37.375Z,78.65
2022-10-08T01:12:33.009Z,78.79
2022-10-08T01:13:13.318Z,78.78
2022-10-08T01:14:00.440Z,79.35
2022-10-08T01:14:44.962Z,79.04
2022-10-08T01:15:26.526Z,79.32
2022-10-08T01:16:26.125Z,79.48
2022-10-08T01:17:06.980Z,79.78
2022-10-08T01:17:50.984Z,79.15
2022-10-08T01:18:53.911Z,79.18
2022-10-08T01:19:42.070Z,78.80
2022-10-08T01:20:33.008Z,79.08
2022-10-08T01:21:13.876Z,79.18
2022-10-08T01:22:24.088Z,79.17
2022-10-08T01:23:11.682Z,79.07
2022-10-08T01:23:55.869Z,79.15
2022-10-08T01:25:06.547Z,78.99
2022-10-08T01:26:03.647Z,78.11
2022-10-08T01:26:49.084Z,78.46
2022-10-08T01:27:37.832Z,78.84
2022-10-08T01:28:15.804Z,78.48
2022-10-08T01:28:59.656Z,78.61
2022-10-08T01:29:42.119Z,78.66
2022-10-08T01:30:16.753Z,78.81
2022-10-08T01:31:01.273Z,78.96
2022-10-08T01:31:44.565Z,78.61
2022-10-08T01:32:21.394Z,77.83
2022-10-08T01:32:59.931Z,77.70
2022-10-08T01:33:50.892Z,77.95
2022-10-08T01:34:29.581Z,78.15
2022-10-08T01:35:06.948Z,77.95
2022-10-08T01:35:45.320Z,77.91
2022-10-08T01:36:19.256Z,78.50
2022-10-08T01:36:54.213Z,78.48
2022-10-08T01:37:37.706Z,78.40
2022-10-08T01:38:13.771Z,77.92
2022-10-08T01:38:51.424Z,77.90
2022-10-08T01:39:30.524Z,77.96
2022-10-08T01:40:09.539Z,78.15
2022-10-08T01:40:44.231Z,78.41
2022-10-08T01:41:18.698Z,78.26
2022-10-08T01:41:58.282Z,78.15
2022-10-08T01:42:35.569Z,78.06
2022-10-08T01:43:10.397Z,78.21
2022-10-08T01:43:47.289Z,78.17
2022-10-08T01:44:47.173Z,78.00
2022-10-08T01:45:26.531Z,78.64
2022-10-08T01:46:05.842Z,78.30
2022-10-08T01:46:41.149Z,78.28
2022-10-08T01:47:18.126Z,78.55
2022-10-08T01:47:51.346Z,78.61
2022-10-08T01:48:31.354Z,78.88
2022-10-08T01:49:07.815Z,79.22
2022-10-08T01:50:05.533Z,79.34
2022-10-08T01:51:05.869Z,78.69
2022-10-08T01:51:53.579Z,78.20
2022-10-08T01:52:33.533Z,78.46
2022-10-08T01:53:11.604Z,78.16
2022-10-08T01:53:47.699Z,78.33
2022-10-08T01:54:22.522Z,78.46
2022-10-08T01:55:00.323Z,78.58
2022-10-08T01:55:37.260Z,78.53
2022-10-08T01:56:14.100Z,78.40
2022-10-08T01:56:48.075Z,78.69
2022-10-08T01:57:20.503Z,78.79
2022-10-08T01:57:57.503Z,78.63
2022-10-08T01:59:02.042Z,78.25
2022-10-08T01:59:43.002Z,78.33
2022-10-08T02:00:16.036Z,78.63
2022-10-08T02:00:51.126Z,78.51
2022-10-08T02:01:32.751Z,78.81
2022-10-08T02:02:15.105Z,79.39
2022-10-08T02:02:47.119Z,79.34
2022-10-08T02:03:19.095Z,79.83
2022-10-08T02:04:10.480Z,79.87
2022-10-08T02:04:42.423Z,79.55
2022-10-08T02:05:14.320Z,79.54
2022-10-08T02:05:52.048Z,79.36
2022-10-08T02:06:24.356Z,79.47
2022-10-08T02:06:59.792Z,79.53
2022-10-08T02:07:36.970Z,79.17
2022-10-08T02:08:08.901Z,78.90
2022-10-08T02:08:40.769Z,78.80
2022-10-08T02:09:14.104Z,78.75
2022-10-08T02:09:51.506Z,79.21
2022-10-08T02:10:25.187Z,79.33
2022-10-08T02:10:57.102Z,79.23
2022-10-08T02:11:29.312Z,79.01
2022-10-08T02:12:01.555Z,79.35
2022-10-08T02:12:34.316Z,79.61
2022-10-08T02:13:06.767Z,79.53
2022-10-08T02:13:38.629Z,79.21
2022-10-08T02:14:11.817Z,79.04
2022-10-08T02:14:48.092Z,79.15
2022-10-08T02:15:41.217Z,78.82
2022-10-08T02:16:26.254Z,78.39
2022-10-08T02:17:30.221Z,78.57
2022-10-08T02:18:13.467Z,78.71
2022-10-08T02:18:51.938Z,78.19
2022-10-08T02:19:36.529Z,78.65
2022-10-08T02:20:20.125Z,79.06
2022-10-08T02:21:03.611Z,78.79
2022-10-08T02:21:37.762Z,79.25
2022-10-08T02:22:15.809Z,79.53
2022-10-08T02:22:54.095Z,79.60
2022-10-08T02:23:31.106Z,79.53
2022-10-08T02:24:21.763Z,79.05
2022-10-08T02:25:13.936Z,79.06
2022-10-08T02:26:00.281Z,79.27
2022-10-08T02:26:37.092Z,79.30
2022-10-08T02:27:11.791Z,79.55
2022-10-08T02:28:11.686Z,79.58
2022-10-08T02:28:50.223Z,79.96
2022-10-08T02:29:33.028Z,80.09
2022-10-08T02:30:09.664Z,79.68
2022-10-08T02:30:59.478Z,79.47
2022-10-08T02:31:41.598Z,79.14
2022-10-08T02:32:33.654Z,79.44
2022-10-08T02:33:15.916Z,79.24
2022-10-08T02:33:56.309Z,79.02
2022-10-08T02:34:35.992Z,79.03
2022-10-08T02:35:15.308Z,78.81
2022-10-08T02:35:51.930Z,79.15
2022-10-08T02:36:29.425Z,79.46
2022-10-08T02:37:17.195Z,79.76
2022-10-08T02:37:58.022Z,80.47
2022-10-08T02:38:47.057Z,80.89
2022-10-08T02:39:20.598Z,80.26
2022-10-08T02:40:03.001Z,80.21
2022-10-08T02:40:39.080Z,80.30
2022-10-08T02:41:13.483Z,80.02
2022-10-08T02:41:50.914Z,80.19
2022-10-08T02:42:25.680Z,79.84
2022-10-08T02:43:10.133Z,79.83
2022-10-08T02:43:47.226Z,79.29
2022-10-08T02:44:27.306Z,79.19
2022-10-08T02:45:07.540Z,78.85
2022-10-08T02:45:46.708Z,79.12
2022-10-08T02:46:25.215Z,78.93
2022-10-08T02:47:00.786Z,78.61
2022-10-08T02:47:35.553Z,79.39
2022-10-08T02:48:15.086Z,79.40
2022-10-08T02:49:18.552Z,78.99
2022-10-08T02:49:57.601Z,79.21
2022-10-08T02:50:33.010Z,78.84
2022-10-08T02:51:13.435Z,78.73
2022-10-08T02:51:49.438Z,78.71
2022-10-08T02:52:23.486Z,78.65
2022-10-08T02:52:55.688Z,78.93
2022-10-08T02:53:28.639Z,79.34
2022-10-08T02:54:04.359Z,79.38
2022-10-08T02:54:39.247Z,79.35
2022-10-08T02:55:27.573Z,79.15
2022-10-08T02:56:14.811Z,79.29
2022-10-08T02:57:05.871Z,79.46
2022-10-08T02:57:46.219Z,79.08
2022-10-08T02:58:18.443Z,78.82
2022-10-08T02:58:51.370Z,78.78
2022-10-08T02:59:24.069Z,79.01
2022-10-08T02:59:56.588Z,78.98
2022-10-08T03:00:35.329Z,79.15
2022-10-08T03:01:13.919Z,79.49
2022-10-08T03:01:50.275Z,79.31
2022-10-08T03:02:35.824Z,79.23
2022-10-08T03:03:13.396Z,79.51
2022-10-08T03:03:50.856Z,79.77
2022-10-08T03:04:34.406Z,80.22
2022-10-08T03:05:13.943Z,79.69
2022-10-08T03:05:49.516Z,79.38
2022-10-08T03:06:21.896Z,79.08
2022-10-08T03:06:55.327Z,79.18
2022-10-08T03:07:31.381Z,79.25
2022-10-08T03:08:05.790Z,79.32
2022-10-08T03:08:42.630Z,79.98
2022-10-08T03:09:16.880Z,80.58
2022-10-08T03:09:51.783Z,80.37
2022-10-08T03:10:26.073Z,79.87
2022-10-08T03:10:59.265Z,79.48
2022-10-08T03:11:31.785Z,79.29
2022-10-08T03:12:06.187Z,79.41
2022-10-08T03:12:39.127Z,78.99
2022-10-08T03:13:12.946Z,78.60
2022-10-08T03:13:48.357Z,78.79
2022-10-08T03:14:23.889Z,79.21
2022-10-08T03:14:56.233Z,79.21
2022-10-08T03:15:29.652Z,79.48
2022-10-08T03:16:03.777Z,79.39
2022-10-08T03:16:41.125Z,78.97
2022-10-08T03:17:16.440Z,78.84
2022-10-08T03:17:49.029Z,78.88
2022-10-08T03:18:24.994Z,78.79
2022-10-08T03:18:59.192Z,78.84
2022-10-08T03:19:31.057Z,78.36
2022-10-08T03:20:06.333Z,78.77
2022-10-08T03:20:45.534Z,79.03
2022-10-08T03:21:17.392Z,79.48
2022-10-08T03:21:53.777Z,79.39
2022-10-08T03:22:25.648Z,79.20
2022-10-08T03:23:01.742Z,78.84
2022-10-08T03:23:33.598Z,78.63
2022-10-08T03:24:07.137Z,78.54
2022-10-08T03:24:38.953Z,78.35
2022-10-08T03:25:11.106Z,78.33
2022-10-08T03:25:42.962Z,78.39
2022-10-08T03:26:17.862Z,78.52
2022-10-08T03:26:49.810Z,79.01
2022-10-08T03:27:21.996Z,79.22
2022-10-08T03:27:53.901Z,79.74
2022-10-08T03:28:25.787Z,79.62
2022-10-08T03:28:57.694Z,79.14
2022-10-08T03:29:29.552Z,78.84
2022-10-08T03:30:02.255Z,78.84
2022-10-08T03:30:34.727Z,78.89
2022-10-08T03:31:06.838Z,79.30
2022-10-08T03:31:39.593Z,79.19
2022-10-08T03:32:11.493Z,78.60
2022-10-08T03:32:43.403Z,78.71
2022-10-08T03:33:15.383Z,78.67
2022-10-08T03:33:54.119Z,78.54
2022-10-08T03:34:26.333Z,78.78
2022-10-08T03:34:58.168Z,78.59
2022-10-08T03:35:30.007Z,78.33
2022-10-08T03:36:02.178Z,78.67
2022-10-08T03:36:33.997Z,78.47
2022-10-08T03:37:05.817Z,78.34
2022-10-08T03:37:37.637Z,78.22
2022-10-08T03:38:09.531Z,78.27
2022-10-08T03:38:41.356Z,78.45
2022-10-08T03:39:13.416Z,78.16
2022-10-08T03:39:45.704Z,78.30
2022-10-08T03:40:17.539Z,78.79
2022-10-08T03:40:59.076Z,79.31
2022-10-08T03:41:31.561Z,79.68
2022-10-08T03:42:03.455Z,79.32
2022-10-08T03:42:35.383Z,78.85
2022-10-08T03:43:07.203Z,79.08
2022-10-08T03:43:39.100Z,79.11
2022-10-08T03:44:12.374Z,79.01
2022-10-08T03:44:44.218Z,79.10
2022-10-08T03:45:16.098Z,78.96
2022-10-08T03:45:55.031Z,79.38
2022-10-08T03:46:27.160Z,79.37
2022-10-08T03:46:59.305Z,79.37
2022-10-08T03:47:31.215Z,79.23
2022-10-08T03:48:03.049Z,78.87
2022-10-08T03:48:35.551Z,79.10
2022-10-08T03:49:07.501Z,79.21
2022-10-08T03:49:40.009Z,79.20
2022-10-08T03:50:11.829Z,79.19
2022-10-08T03:50:58.413Z,78.92
2022-10-08T03:51:30.330Z,79.06
2022-10-08T03:52:02.484Z,78.84
2022-10-08T03:52:34.355Z,79.24
2022-10-08T03:53:06.212Z,79.54
2022-10-08T03:53:40.010Z,79.22
2022-10-08T03:54:11.855Z,78.98
2022-10-08T03:54:43.687Z,79.11
2022-10-08T03:55:15.793Z,78.81
2022-10-08T03:55:47.819Z,79.25
2022-10-08T03:56:24.725Z,78.92
2022-10-08T03:56:56.581Z,78.61
2022-10-08T03:57:28.681Z,78.92
2022-10-08T03:58:00.590Z,78.75
2022-10-08T03:58:32.772Z,78.75
2022-10-08T03:59:04.603Z,78.65
2022-10-08T03:59:36.425Z,78.44
2022-10-08T04:00:08.996Z,78.38
2022-10-08T04:00:41.899Z,77.99
2022-10-08T04:01:16.169Z,77.87
2022-10-08T04:01:48.134Z,77.81
2022-10-08T04:02:20.042Z,78.24
2022-10-08T04:02:52.360Z,78.33
2022-10-08T04:03:24.534Z,78.34
2022-10-08T04:03:56.490Z,78.50
2022-10-08T04:04:28.414Z,78.95
2022-10-08T04:05:00.237Z,79.31
2022-10-08T04:05:32.377Z,79.36
2022-10-08T04:06:04.785Z,79.31
2022-10-08T04:06:36.659Z,78.75
2022-10-08T04:07:08.493Z,78.35
2022-10-08T04:07:40.336Z,78.22
2022-10-08T04:08:12.132Z,78.64
2022-10-08T04:08:44.104Z,78.75
2022-10-08T04:09:15.979Z,78.38
2022-10-08T04:09:47.805Z,78.76
2022-10-08T04:10:19.633Z,79.01
2022-10-08T04:10:51.517Z,78.55
2022-10-08T04:11:23.625Z,78.40
2022-10-08T04:11:55.493Z,78.56
2022-10-08T04:12:29.028Z,78.74
2022-10-08T04:13:00.857Z,78.48
2022-10-08T04:13:33.942Z,78.43
2022-10-08T04:14:05.811Z,78.41
2022-10-08T04:14:37.717Z,78.45
2022-10-08T04:15:09.760Z,78.77
2022-10-08T04:15:42.863Z,79.05
2022-10-08T04:16:17.978Z,79.03
2022-10-08T04:16:50.194Z,79.44
2022-10-08T04:17:22.013Z,79.44
2022-10-08T04:17:53.900Z,79.52
2022-10-08T04:18:27.013Z,79.28
2022-10-08T04:18:58.872Z,79.03
2022-10-08T04:19:30.734Z,79.09
2022-10-08T04:20:02.609Z,78.91
2022-10-08T04:20:34.566Z,78.97
2022-10-08T04:21:09.668Z,79.45
2022-10-08T04:21:41.562Z,79.83
2022-10-08T04:22:13.635Z,79.42
2022-10-08T04:22:45.706Z,79.04
2022-10-08T04:23:17.748Z,78.66
2022-10-08T04:23:50.178Z,78.64
2022-10-08T04:24:22.041Z,78.63
2022-10-08T04:24:53.862Z,78.51
2022-10-08T04:25:25.731Z,78.49
2022-10-08T04:25:57.594Z,78.41
2022-10-08T04:26:29.434Z,78.45
2022-10-08T04:27:01.260Z,78.47
2022-10-08T04:27:33.376Z,78.59
2022-10-08T04:28:06.079Z,78.64
2022-10-08T04:28:39.852Z,78.41
2022-10-08T04:29:12.663Z,78.10
2022-10-08T04:29:44.583Z,78.27
2022-10-08T04:30:17.229Z,78.40
2022-10-08T04:31:19.404Z,78.37
2022-10-08T04:31:51.299Z,78.73
2022-10-08T04:32:23.167Z,78.87
2022-10-08T04:32:55.339Z,78.70
2022-10-08T04:33:28.753Z,78.77
2022-10-08T04:34:00.586Z,78.69
2022-10-08T04:34:32.472Z,79.05
2022-10-08T04:35:04.630Z,78.77
2022-10-08T04:35:38.216Z,79.47
2022-10-08T04:36:15.181Z,79.01
2022-10-08T04:36:47.062Z,78.92
2022-10-08T04:37:18.933Z,78.56
2022-10-08T04:37:50.819Z,78.29
2022-10-08T04:38:24.150Z,78.16
2022-10-08T04:38:55.966Z,79.06
2022-10-08T04:39:27.812Z,78.74
2022-10-08T04:39:59.803Z,78.96
2022-10-08T04:40:31.636Z,78.75
2022-10-08T04:41:11.698Z,79.40
2022-10-08T04:41:43.573Z,79.04
2022-10-08T04:42:15.597Z,78.80
2022-10-08T04:42:52.134Z,79.06
2022-10-08T04:43:24.230Z,79.50
2022-10-08T04:44:01.185Z,79.51
2022-10-08T04:44:33.031Z,79.65
2022-10-08T04:45:05.236Z,80.59
2022-10-08T04:45:46.673Z,82.59
2022-10-08T04:46:21.049Z,82.76
2022-10-08T04:46:52.944Z,83.93
2022-10-08T04:47:24.769Z,84.43
2022-10-08T04:47:56.648Z,84.59
2022-10-08T04:48:29.046Z,84.57
2022-10-08T04:49:01.021Z,86.35
2022-10-08T04:49:32.934Z,85.76
2022-10-08T04:50:05.162Z,86.94
2022-10-08T04:50:37.033Z,87.02
2022-10-08T04:51:10.830Z,86.89
2022-10-08T04:51:42.814Z,86.83
2022-10-08T04:52:16.841Z,86.75
2022-10-08T04:52:49.019Z,86.86
2022-10-08T04:53:21.212Z,87.16
2022-10-08T04:53:55.181Z,87.68
2022-10-08T04:54:27.075Z,87.55
2022-10-08T04:54:58.900Z,87.30
2022-10-08T04:55:30.773Z,87.28
2022-10-08T04:56:20.469Z,86.96
2022-10-08T04:56:52.328Z,87.23
2022-10-08T04:57:24.138Z,87.35
2022-10-08T04:57:56.036Z,86.73
2022-10-08T04:58:27.867Z,87.03
2022-10-08T04:59:00.277Z,86.86
2022-10-08T04:59:32.105Z,86.76
2022-10-08T05:00:18.104Z,86.76
2022-10-08T05:00:51.932Z,86.48
2022-10-08T05:01:25.796Z,85.64
2022-10-08T05:01:57.776Z,85.75
2022-10-08T05:02:29.835Z,86.20
2022-10-08T05:03:01.711Z,85.96
2022-10-08T05:03:45.929Z,85.99
2022-10-08T05:04:18.323Z,85.89
2022-10-08T05:04:50.204Z,85.76
2022-10-08T05:05:22.300Z,85.67
2022-10-08T05:05:54.128Z,85.52
2022-10-08T05:06:28.835Z,85.34
2022-10-08T05:07:00.692Z,85.14
2022-10-08T05:07:32.525Z,85.38
2022-10-08T05:08:04.354Z,85.36
2022-10-08T05:08:36.628Z,85.32
2022-10-08T05:09:09.286Z,84.94
2022-10-08T05:09:41.474Z,84.93
2022-10-08T05:10:13.360Z,84.92
2022-10-08T05:10:49.381Z,85.11
2022-10-08T05:11:25.168Z,85.05
2022-10-08T05:11:56.994Z,85.16
2022-10-08T05:12:28.818Z,85.47
2022-10-08T05:13:01.028Z,85.53
2022-10-08T05:13:33.018Z,85.33
2022-10-08T05:14:05.314Z,85.63
2022-10-08T05:14:37.853Z,85.74
2022-10-08T05:15:10.556Z,85.85
2022-10-08T05:15:42.493Z,85.25
2022-10-08T05:16:14.625Z,85.39
2022-10-08T05:16:46.525Z,85.52
2022-10-08T05:17:18.449Z,85.27
2022-10-08T05:17:50.287Z,84.97
2022-10-08T05:18:22.736Z,84.89
2022-10-08T05:18:54.824Z,84.96
2022-10-08T05:19:26.741Z,85.13
2022-10-08T05:19:58.574Z,85.19
2022-10-08T05:20:30.775Z,84.95
2022-10-08T05:21:08.685Z,84.52
2022-10-08T05:21:40.578Z,84.15
2022-10-08T05:22:12.383Z,84.13
2022-10-08T05:22:44.383Z,84.09
2022-10-08T05:23:16.435Z,83.76
2022-10-08T05:23:48.401Z,83.37
2022-10-08T05:24:20.267Z,82.99
2022-10-08T05:24:52.100Z,83.20
2022-10-08T05:25:24.003Z,83.20
2022-10-08T05:25:56.101Z,82.89
2022-10-08T05:26:53.478Z,82.53
2022-10-08T05:27:22.848Z,82.39
2022-10-08T05:27:54.740Z,81.63
2022-10-08T05:28:26.605Z,80.92
2022-10-08T05:29:00.085Z,80.30
2022-10-08T05:29:31.947Z,79.66
2022-10-08T05:30:04.383Z,78.46
2022-10-08T05:30:36.250Z,77.43
2022-10-08T05:31:08.485Z,76.00
2022-10-08T05:31:40.421Z,75.28
2022-10-08T05:32:12.271Z,74.38
2022-10-08T05:32:44.324Z,73.38
2022-10-08T05:33:16.403Z,72.24
2022-10-08T05:33:48.260Z,70.82
2022-10-08T05:34:20.250Z,69.31
2022-10-08T05:34:52.076Z,68.22
2022-10-08T05:35:23.906Z,67.17
2022-10-08T05:35:55.731Z,66.81
2022-10-08T05:36:31.391Z,66.89
2022-10-08T05:37:03.254Z,66.37
2022-10-08T05:37:35.080Z,65.53
2022-10-08T05:38:06.917Z,64.98
2022-10-08T05:38:38.742Z,64.89
2022-10-08T05:39:10.675Z,63.93
2022-10-08T05:39:42.504Z,63.09
2022-10-08T05:40:14.417Z,62.49
2022-10-08T05:40:46.236Z,61.15
2022-10-08T05:41:29.820Z,61.74
2022-10-08T05:42:01.929Z,61.55
2022-10-08T05:42:33.734Z,61.31
2022-10-08T05:43:05.585Z,60.36
2022-10-08T05:43:37.453Z,59.34
2022-10-08T05:44:11.010Z,58.87
2022-10-08T05:44:45.405Z,57.53
2022-10-08T05:45:17.528Z,56.09
2022-10-08T05:45:51.214Z,55.31
2022-10-08T05:46:28.014Z,54.22
2022-10-08T05:46:59.885Z,53.44
2022-10-08T05:47:32.069Z,52.57
2022-10-08T05:48:03.981Z,52.91
2022-10-08T05:48:36.345Z,54.07
2022-10-08T05:49:19.745Z,54.42
2022-10-08T05:49:51.583Z,54.35
2022-10-08T05:50:23.417Z,53.77
2022-10-08T05:50:55.259Z,53.55
2022-10-08T05:51:28.143Z,52.66
2022-10-08T05:52:00.042Z,51.87
2022-10-08T05:52:32.175Z,51.17
2022-10-08T05:53:08.593Z,51.02
2022-10-08T05:53:44.108Z,51.93
2022-10-08T05:54:17.504Z,53.43
2022-10-08T05:54:49.374Z,53.10
2022-10-08T05:55:21.226Z,51.68
2022-10-08T05:56:02.317Z,50.66
2022-10-08T05:56:34.392Z,50.02
2022-10-08T05:57:06.224Z,49.54
2022-10-08T05:57:38.499Z,49.13
2022-10-08T05:58:10.401Z,48.58
2022-10-08T05:58:42.729Z,48.14
2022-10-08T05:59:21.009Z,48.78
2022-10-08T05:59:52.837Z,48.38
2022-10-08T06:00:27.035Z,48.04
2022-10-08T06:01:00.362Z,47.18
2022-10-08T06:01:34.015Z,46.95
2022-10-08T06:02:06.754Z,46.60
2022-10-08T06:02:38.638Z,46.04
2022-10-08T06:03:10.609Z,45.70
2022-10-08T06:03:43.294Z,45.39
2022-10-08T06:04:15.243Z,45.49
2022-10-08T06:04:49.445Z,46.33
2022-10-08T06:05:21.951Z,47.26
2022-10-08T06:05:55.214Z,47.24
2022-10-08T06:06:28.260Z,47.04
2022-10-08T06:07:00.113Z,47.96
2022-10-08T06:07:31.958Z,47.60
2022-10-08T06:08:03.791Z,47.21
2022-10-08T06:08:36.590Z,47.74
2022-10-08T06:09:12.123Z,47.36
2022-10-08T06:09:45.136Z,48.21
2022-10-08T06:10:17.075Z,49.06
2022-10-08T06:10:52.971Z,48.99
2022-10-08T06:11:26.215Z,50.49
2022-10-08T06:11:58.623Z,50.76
2022-10-08T06:12:30.462Z,51.16
2022-10-08T06:13:02.284Z,51.15
2022-10-08T06:13:34.458Z,59.31
2022-10-08T06:14:07.627Z,57.71
2022-10-08T06:14:40.629Z,53.63
2022-10-08T06:15:12.489Z,51.91
2022-10-08T06:15:44.359Z,53.74
2022-10-08T06:16:16.265Z,54.95
2022-10-08T06:16:48.179Z,54.43
2022-10-08T06:17:20.814Z,55.49
2022-10-08T06:17:52.663Z,56.39
2022-10-08T06:18:26.412Z,56.16
2022-10-08T06:18:58.424Z,55.39
2022-10-08T06:19:30.215Z,55.02
2022-10-08T06:20:02.070Z,56.41
2022-10-08T06:20:37.288Z,56.47
2022-10-08T06:21:12.509Z,56.06
2022-10-08T06:21:44.520Z,55.89
2022-10-08T06:22:16.336Z,55.44
2022-10-08T06:22:48.857Z,55.79
2022-10-08T06:23:22.284Z,55.58
2022-10-08T06:23:56.323Z,56.45
2022-10-08T06:24:28.158Z,57.90
2022-10-08T06:25:00.025Z,57.90
2022-10-08T06:25:35.740Z,57.39
2022-10-08T06:26:09.770Z,57.88
2022-10-08T06:26:44.076Z,59.30
2022-10-08T06:27:15.901Z,59.02
2022-10-08T06:27:48.007Z,59.13
2022-10-08T06:28:19.874Z,58.96
2022-10-08T06:28:52.256Z,58.76
2022-10-08T06:29:24.109Z,57.87
2022-10-08T06:29:55.948Z,57.13
2022-10-08T06:30:28.017Z,57.83
2022-10-08T06:31:00.219Z,57.28
2022-10-08T06:31:32.325Z,57.51
2022-10-08T06:32:04.212Z,58.72
2022-10-08T06:32:36.044Z,59.63
2022-10-08T06:33:09.653Z,58.94
2022-10-08T06:33:41.539Z,59.82
2022-10-08T06:34:13.587Z,60.12
2022-10-08T06:34:45.484Z,59.85
2022-10-08T06:35:17.331Z,59.32
2022-10-08T06:35:49.173Z,59.02
2022-10-08T06:36:26.541Z,59.79
2022-10-08T06:36:58.371Z,60.24
2022-10-08T06:37:30.189Z,59.66
2022-10-08T06:38:03.109Z,58.72
2022-10-08T06:38:35.284Z,58.53
2022-10-08T06:39:11.456Z,59.44
2022-10-08T06:39:48.172Z,61.17
2022-10-08T06:40:20.304Z,60.46
2022-10-08T06:40:52.152Z,59.27
2022-10-08T06:41:25.000Z,59.22
2022-10-08T06:41:56.834Z,60.06
2022-10-08T06:42:28.776Z,60.65
2022-10-08T06:43:07.551Z,60.60
2022-10-08T06:43:39.685Z,59.96
2022-10-08T06:44:14.048Z,60.51
2022-10-08T06:44:45.874Z,60.46
2022-10-08T06:45:18.121Z,59.25
2022-10-08T06:45:50.215Z,58.64
2022-10-08T06:46:22.802Z,58.38
2022-10-08T06:46:54.774Z,57.89
2022-10-08T06:47:26.703Z,57.13
2022-10-08T06:47:58.540Z,56.86
2022-10-08T06:48:31.021Z,56.88
2022-10-08T06:49:03.790Z,58.27
2022-10-08T06:49:35.665Z,58.45
2022-10-08T06:50:07.904Z,58.05
2022-10-08T06:50:40.353Z,57.60
2022-10-08T06:51:15.640Z,57.49
2022-10-08T06:51:47.520Z,57.12
2022-10-08T06:52:19.334Z,58.09
2022-10-08T06:52:51.144Z,57.68
2022-10-08T06:53:22.958Z,57.72
2022-10-08T06:53:59.442Z,56.89
2022-10-08T06:54:33.695Z,56.59
2022-10-08T06:55:05.764Z,56.14
2022-10-08T06:55:38.236Z,57.03
2022-10-08T06:56:15.345Z,57.55
2022-10-08T06:56:47.215Z,57.84
2022-10-08T06:57:19.096Z,58.73
2022-10-08T06:57:50.985Z,58.46
2022-10-08T06:58:22.861Z,57.92
2022-10-08T06:58:55.232Z,58.90
2022-10-08T06:59:27.107Z,59.03
2022-10-08T06:59:59.344Z,59.02
2022-10-08T07:00:32.456Z,58.44
2022-10-08T07:01:05.354Z,57.58
2022-10-08T07:01:37.587Z,57.03
2022-10-08T07:02:11.376Z,57.89
2022-10-08T07:02:44.424Z,58.25
2022-10-08T07:03:16.479Z,57.50
2022-10-08T07:03:50.741Z,56.88
2022-10-08T07:04:22.701Z,57.07
2022-10-08T07:04:54.556Z,57.37
2022-10-08T07:05:26.713Z,56.82
2022-10-08T07:06:08.009Z,55.89
2022-10-08T07:06:39.892Z,55.61
2022-10-08T07:07:11.827Z,56.75
2022-10-08T07:07:43.711Z,55.97
2022-10-08T07:08:15.549Z,55.28
2022-10-08T07:08:47.669Z,54.98
2022-10-08T07:09:19.476Z,55.14
2022-10-08T07:09:51.309Z,54.84
2022-10-08T07:10:23.186Z,53.92
2022-10-08T07:10:55.627Z,54.10
2022-10-08T07:11:29.129Z,54.18
2022-10-08T07:12:00.952Z,54.05
2022-10-08T07:12:32.923Z,54.52
2022-10-08T07:13:04.732Z,55.33
2022-10-08T07:13:37.421Z,54.51
2022-10-08T07:14:09.380Z,54.68
2022-10-08T07:14:41.264Z,54.69
2022-10-08T07:15:13.138Z,54.67
2022-10-08T07:15:45.002Z,54.67
2022-10-08T07:16:21.358Z,54.32
2022-10-08T07:16:53.361Z,54.53
2022-10-08T07:17:28.580Z,55.15
2022-10-08T07:18:00.437Z,54.46
2022-10-08T07:18:33.676Z,53.81
2022-10-08T07:19:05.736Z,53.73
2022-10-08T07:19:37.587Z,53.59
2022-10-08T07:20:09.636Z,53.56
2022-10-08T07:20:41.470Z,53.32
2022-10-08T07:21:15.067Z,53.34
2022-10-08T07:21:47.178Z,54.03
2022-10-08T07:22:18.979Z,53.96
2022-10-08T07:22:50.831Z,53.21
2022-10-08T07:23:22.665Z,53.15
2022-10-08T07:23:54.833Z,52.99
2022-10-08T07:24:26.677Z,52.80
2022-10-08T07:24:58.833Z,54.12
2022-10-08T07:25:30.940Z,53.64
2022-10-08T07:26:10.647Z,53.74
2022-10-08T07:26:42.474Z,54.36
2022-10-08T07:27:15.490Z,54.43
2022-10-08T07:27:47.326Z,54.59
2022-10-08T07:28:19.214Z,54.29
2022-10-08T07:28:55.210Z,53.44
2022-10-08T07:29:27.695Z,53.05
2022-10-08T07:29:59.519Z,53.17
2022-10-08T07:30:33.010Z,53.15
2022-10-08T07:31:20.279Z,53.29